createdAt,value
2019-02-16T00:01:16.805Z,3.44
2019-02-16T00:03:24.649Z,3.42
2019-02-16T00:05:32.324Z,3.46
2019-02-16T00:07:40.036Z,3.40
2019-02-16T00:09:47.730Z,3.27
2019-02-16T00:11:55.521Z,3.29
2019-02-16T00:14:03.238Z,3.38
2019-02-16T00:16:10.940Z,3.30
2019-02-16T00:18:18.636Z,3.40
2019-02-16T00:20:26.384Z,3.30
2019-02-16T00:22:34.140Z,3.34
2019-02-16T00:24:41.895Z,3.32
2019-02-16T00:26:49.695Z,3.30
2019-02-16T00:28:57.430Z,3.33
2019-02-16T00:31:05.208Z,3.18
2019-02-16T00:33:12.920Z,3.03
2019-02-16T00:35:20.596Z,3.19
2019-02-16T00:37:28.200Z,3.10
2019-02-16T00:39:35.969Z,3.05
2019-02-16T00:41:43.661Z,3.17
2019-02-16T00:43:51.436Z,3.21
2019-02-16T00:45:59.104Z,3.17
2019-02-16T00:48:06.849Z,2.95
2019-02-16T00:50:14.657Z,3.07
2019-02-16T00:52:22.364Z,3.02
2019-02-16T00:54:29.991Z,3.13
2019-02-16T00:56:37.551Z,2.99
2019-02-16T00:58:45.263Z,2.94
2019-02-16T01:00:53.015Z,3.01
2019-02-16T01:03:00.699Z,3.01
2019-02-16T01:05:09.094Z,3.01
2019-02-16T01:07:16.804Z,2.97
2019-02-16T01:09:24.451Z,3.09
2019-02-16T01:11:32.044Z,3.14
2019-02-16T01:13:39.696Z,3.09
2019-02-16T01:15:47.470Z,3.00
2019-02-16T01:17:55.231Z,2.95
2019-02-16T01:20:02.958Z,3.02
2019-02-16T01:22:10.530Z,3.01
2019-02-16T01:24:18.385Z,3.06
2019-02-16T01:26:26.235Z,2.99
2019-02-16T01:28:33.840Z,3.01
2019-02-16T01:30:41.635Z,3.08
2019-02-16T01:32:49.474Z,3.13
2019-02-16T01:34:57.124Z,3.06
2019-02-16T01:37:05.003Z,3.01
2019-02-16T01:39:12.806Z,3.00
2019-02-16T01:41:20.548Z,3.14
2019-02-16T01:43:28.199Z,3.11
2019-02-16T01:45:35.848Z,3.00
2019-02-16T01:47:43.909Z,3.07
2019-02-16T01:49:51.683Z,2.85
2019-02-16T01:51:59.474Z,2.95
2019-02-16T01:54:07.652Z,2.91
2019-02-16T01:56:15.345Z,2.97
2019-02-16T01:58:23.030Z,2.94
2019-02-16T02:00:30.662Z,2.88
2019-02-16T02:02:38.397Z,2.97
2019-02-16T02:04:46.238Z,2.93
2019-02-16T02:06:53.784Z,2.94
2019-02-16T02:09:01.431Z,2.92
2019-02-16T02:11:09.197Z,2.83
2019-02-16T02:13:16.779Z,2.74
2019-02-16T02:15:24.431Z,2.85
2019-02-16T02:17:32.151Z,2.82
2019-02-16T02:19:39.909Z,2.93
2019-02-16T02:21:47.302Z,2.93
2019-02-16T02:23:55.026Z,2.98
2019-02-16T02:26:02.579Z,2.87
2019-02-16T02:28:10.392Z,2.81
2019-02-16T02:30:18.262Z,2.80
2019-02-16T02:32:25.888Z,2.83
2019-02-16T02:34:33.586Z,2.66
2019-02-16T02:36:41.280Z,2.63
2019-02-16T02:38:49.092Z,2.91
2019-02-16T02:40:56.786Z,2.72
2019-02-16T02:43:04.424Z,2.80
2019-02-16T02:45:12.575Z,2.80
2019-02-16T02:47:20.367Z,2.68
2019-02-16T02:49:28.136Z,2.65
2019-02-16T02:51:35.888Z,2.57
2019-02-16T02:53:43.593Z,2.63
2019-02-16T02:55:51.320Z,2.76
2019-02-16T02:57:59.091Z,2.70
2019-02-16T03:00:07.920Z,2.63
2019-02-16T03:02:15.535Z,2.68
2019-02-16T03:04:23.116Z,2.71
2019-02-16T03:06:30.874Z,2.59
2019-02-16T03:08:38.675Z,2.66
2019-02-16T03:10:46.419Z,2.71
2019-02-16T03:12:54.070Z,2.64
2019-02-16T03:15:01.770Z,2.65
2019-02-16T03:17:09.571Z,2.63
2019-02-16T03:19:17.274Z,2.66
2019-02-16T03:21:24.865Z,2.60
2019-02-16T03:23:33.007Z,2.51
2019-02-16T03:25:40.932Z,2.49
2019-02-16T03:28:32.423Z,2.41
2019-02-16T03:31:48.047Z,2.50
2019-02-16T03:34:06.021Z,2.41
2019-02-16T03:37:16.425Z,2.30
2019-02-16T03:39:38.625Z,2.39
2019-02-16T03:41:46.398Z,2.47
2019-02-16T03:43:54.057Z,2.41
2019-02-16T03:46:01.494Z,2.23
2019-02-16T03:48:09.300Z,2.26
2019-02-16T03:50:16.937Z,2.44
2019-02-16T03:52:24.521Z,2.51
2019-02-16T03:54:32.430Z,2.37
2019-02-16T03:56:40.090Z,2.20
2019-02-16T03:58:47.739Z,2.10
2019-02-16T04:00:55.378Z,2.30
2019-02-16T04:03:03.191Z,2.23
2019-02-16T04:05:11.059Z,2.26
2019-02-16T04:07:18.783Z,2.26
2019-02-16T04:09:26.444Z,2.16
2019-02-16T04:11:34.147Z,2.15
2019-02-16T04:13:41.814Z,2.24
2019-02-16T04:15:49.650Z,2.22
2019-02-16T04:17:57.398Z,2.17
2019-02-16T04:20:05.466Z,2.14
2019-02-16T04:22:23.835Z,2.26
2019-02-16T04:24:22.653Z,1.99
2019-02-16T04:26:30.496Z,2.11
2019-02-16T04:28:38.101Z,1.82
2019-02-16T04:30:45.810Z,1.95
2019-02-16T04:32:53.509Z,1.87
2019-02-16T04:35:01.226Z,2.27
2019-02-16T04:37:08.864Z,2.12
2019-02-16T04:39:16.533Z,2.17
2019-02-16T04:41:24.289Z,2.10
2019-02-16T04:43:32.127Z,2.12
2019-02-16T04:45:40.023Z,2.21
2019-02-16T04:47:47.774Z,2.09
2019-02-16T04:49:55.418Z,2.10
2019-02-16T04:52:03.218Z,2.02
2019-02-16T04:54:11.040Z,1.84
2019-02-16T04:56:18.788Z,1.98
2019-02-16T04:58:26.502Z,1.94
2019-02-16T05:00:34.119Z,1.93
2019-02-16T05:02:41.860Z,2.05
2019-02-16T05:04:49.625Z,2.08
2019-02-16T05:06:57.485Z,2.11
2019-02-16T05:09:06.887Z,1.90
2019-02-16T05:11:14.485Z,1.88
2019-02-16T05:13:22.147Z,1.99
2019-02-16T05:15:29.909Z,2.04
2019-02-16T05:17:37.559Z,2.14
2019-02-16T05:19:45.237Z,2.08
2019-02-16T05:21:52.958Z,2.11
2019-02-16T05:24:00.703Z,2.05
2019-02-16T05:26:08.485Z,1.99
2019-02-16T05:28:16.169Z,1.96
2019-02-16T05:30:23.505Z,1.86
2019-02-16T05:32:30.858Z,2.02
2019-02-16T05:34:38.226Z,1.93
2019-02-16T05:36:46.223Z,1.96
2019-02-16T05:38:53.937Z,1.72
2019-02-16T05:41:01.601Z,1.89
2019-02-16T05:43:10.323Z,1.79
2019-02-16T05:45:18.178Z,1.78
2019-02-16T05:47:25.804Z,1.78
2019-02-16T05:49:33.436Z,1.90
2019-02-16T05:51:41.015Z,1.77
2019-02-16T05:53:48.692Z,1.74
2019-02-16T05:55:56.389Z,1.67
2019-02-16T05:58:04.167Z,1.70
2019-02-16T06:00:13.296Z,1.78
2019-02-16T06:02:21.073Z,1.77
2019-02-16T06:04:28.814Z,1.72
2019-02-16T06:06:36.427Z,1.52
2019-02-16T06:08:44.039Z,1.71
2019-02-16T06:10:51.735Z,1.63
2019-02-16T06:12:59.417Z,1.68
2019-02-16T06:15:07.841Z,1.70
2019-02-16T06:17:15.431Z,1.79
2019-02-16T06:19:23.096Z,1.64
2019-02-16T06:21:30.789Z,1.65
2019-02-16T06:23:38.536Z,1.68
2019-02-16T06:25:46.452Z,1.78
2019-02-16T06:27:54.303Z,1.89
2019-02-16T06:30:01.793Z,1.76
2019-02-16T06:32:09.498Z,1.91
2019-02-16T06:34:17.134Z,1.78
2019-02-16T06:36:43.812Z,1.84
2019-02-16T06:38:51.517Z,1.80
2019-02-16T06:40:59.401Z,1.69
2019-02-16T06:43:07.195Z,1.80
2019-02-16T06:45:14.961Z,1.64
2019-02-16T06:47:22.771Z,1.72
2019-02-16T06:49:30.717Z,1.52
2019-02-16T06:51:38.473Z,1.52
2019-02-16T06:53:46.196Z,1.49
2019-02-16T06:56:00.618Z,1.57
2019-02-16T06:58:08.488Z,1.77
2019-02-16T07:00:18.054Z,1.68
2019-02-16T07:02:26.973Z,1.67
2019-02-16T07:04:34.868Z,1.62
2019-02-16T07:06:42.740Z,1.69
2019-02-16T07:08:50.852Z,1.74
2019-02-16T07:10:58.694Z,1.76
2019-02-16T07:13:06.509Z,1.69
2019-02-16T07:15:14.174Z,1.60
2019-02-16T07:17:40.590Z,1.51
2019-02-16T07:19:52.031Z,1.56
2019-02-16T07:21:59.812Z,1.71
2019-02-16T07:24:07.571Z,1.64
2019-02-16T07:26:15.523Z,1.82
2019-02-16T07:28:23.028Z,1.88
2019-02-16T07:30:30.585Z,1.94
2019-02-16T07:32:38.427Z,1.78
2019-02-16T07:34:46.160Z,1.82
2019-02-16T07:36:53.821Z,1.60
2019-02-16T07:39:01.489Z,1.52
2019-02-16T07:41:09.244Z,1.69
2019-02-16T07:43:54.234Z,1.78
2019-02-16T07:46:07.907Z,1.77
2019-02-16T07:48:26.301Z,1.61
2019-02-16T07:50:40.310Z,1.70
2019-02-16T07:53:09.725Z,1.78
2019-02-16T07:55:36.433Z,1.66
2019-02-16T07:57:52.877Z,1.67
2019-02-16T08:00:14.306Z,1.68
2019-02-16T08:02:39.701Z,1.82
2019-02-16T08:05:06.119Z,1.84
2019-02-16T08:07:38.735Z,1.80
2019-02-16T08:10:08.095Z,1.87
2019-02-16T08:12:40.726Z,1.86
2019-02-16T08:15:00.105Z,1.87
2019-02-16T08:17:26.903Z,1.78
2019-02-16T08:19:57.539Z,1.64
2019-02-16T08:22:11.637Z,1.71
2019-02-16T08:24:45.503Z,1.66
2019-02-16T08:27:10.712Z,1.70
2019-02-16T08:29:52.197Z,1.61
2019-02-16T08:32:18.971Z,1.69
2019-02-16T08:34:42.650Z,1.74
2019-02-16T08:37:09.582Z,1.72
2019-02-16T08:39:31.522Z,1.59
2019-02-16T08:42:04.288Z,1.55
2019-02-16T08:44:37.152Z,1.56
2019-02-16T08:46:54.551Z,1.51
2019-02-16T08:49:24.184Z,1.41
2019-02-16T08:51:40.218Z,1.50
2019-02-16T08:54:25.285Z,1.52
2019-02-16T08:56:54.665Z,1.50
2019-02-16T08:59:23.844Z,1.69
2019-02-16T09:01:53.097Z,1.84
2019-02-16T09:04:12.229Z,1.84
2019-02-16T09:06:32.842Z,1.74
2019-02-16T09:09:05.475Z,1.75
2019-02-16T09:11:24.106Z,1.49
2019-02-16T09:14:02.707Z,1.55
2019-02-16T09:16:29.242Z,1.67
2019-02-16T09:18:58.601Z,1.69
2019-02-16T09:21:28.047Z,1.69
2019-02-16T09:23:59.452Z,1.68
2019-02-16T09:26:13.806Z,1.77
2019-02-16T09:28:40.279Z,1.78
2019-02-16T09:31:05.538Z,1.89
2019-02-16T09:33:32.954Z,1.85
2019-02-16T09:35:58.281Z,1.81
2019-02-16T09:38:28.202Z,1.84
2019-02-16T09:41:02.732Z,1.87
2019-02-16T09:43:38.384Z,1.97
2019-02-16T09:46:02.799Z,2.02
2019-02-16T09:48:16.886Z,2.03
2019-02-16T09:50:46.402Z,2.10
2019-02-16T09:53:31.492Z,2.10
2019-02-16T09:55:57.076Z,2.11
2019-02-16T09:58:22.830Z,2.00
2019-02-16T10:00:40.393Z,2.10
2019-02-16T10:03:00.495Z,2.21
2019-02-16T10:05:26.566Z,2.21
2019-02-16T10:07:47.493Z,2.03
2019-02-16T10:10:04.030Z,2.13
2019-02-16T10:12:42.672Z,2.21
2019-02-16T10:15:08.719Z,2.24
2019-02-16T10:17:26.260Z,2.25
2019-02-16T10:20:00.325Z,2.24
2019-02-16T10:22:28.303Z,2.30
2019-02-16T10:24:55.889Z,2.20
2019-02-16T10:27:21.484Z,2.25
2019-02-16T10:29:51.390Z,2.23
2019-02-16T10:32:17.064Z,2.31
2019-02-16T10:34:48.969Z,2.38
2019-02-16T10:37:14.676Z,2.35
2019-02-16T10:39:44.424Z,2.37
2019-02-16T10:42:12.073Z,2.41
2019-02-16T10:44:56.983Z,2.42
2019-02-16T10:47:38.684Z,2.36
2019-02-16T10:50:07.960Z,2.49
2019-02-16T10:52:34.943Z,2.65
2019-02-16T10:55:02.089Z,2.72
2019-02-16T10:57:26.225Z,2.65
2019-02-16T11:00:02.074Z,2.51
2019-02-16T11:02:15.896Z,2.68
2019-02-16T11:04:57.831Z,2.75
2019-02-16T11:07:29.309Z,2.79
2019-02-16T11:09:43.031Z,3.04
2019-02-16T11:12:12.998Z,3.00
2019-02-16T11:14:49.021Z,3.08
2019-02-16T11:17:09.758Z,2.98
2019-02-16T11:19:45.775Z,3.06
2019-02-16T11:22:18.975Z,3.01
2019-02-16T11:24:41.199Z,3.09
2019-02-16T11:27:06.578Z,3.35
2019-02-16T11:29:39.301Z,3.69
2019-02-16T11:32:08.825Z,4.05
2019-02-16T11:34:32.865Z,4.13
2019-02-16T11:37:05.847Z,4.17
2019-02-16T11:39:35.385Z,4.12
2019-02-16T11:41:49.096Z,4.12
2019-02-16T11:44:21.763Z,4.26
2019-02-16T11:47:00.411Z,4.41
2019-02-16T11:49:39.286Z,4.70
2019-02-16T11:51:58.562Z,4.83
2019-02-16T11:54:23.887Z,4.66
2019-02-16T11:56:50.497Z,4.63
2019-02-16T11:59:25.773Z,4.66
2019-02-16T12:01:58.178Z,4.85
2019-02-16T12:04:29.257Z,4.76
2019-02-16T12:06:58.801Z,5.06
2019-02-16T12:09:26.426Z,5.05
2019-02-16T12:12:05.654Z,5.11
2019-02-16T12:14:23.546Z,5.05
2019-02-16T12:16:49.628Z,5.13
2019-02-16T12:19:15.795Z,5.16
2019-02-16T12:21:42.934Z,5.23
2019-02-16T12:24:18.126Z,5.23
2019-02-16T12:26:42.979Z,5.20
2019-02-16T12:29:18.480Z,5.23
2019-02-16T12:31:47.671Z,5.42
2019-02-16T12:34:06.825Z,5.54
2019-02-16T12:36:36.065Z,5.44
2019-02-16T12:39:04.838Z,5.40
2019-02-16T12:41:24.720Z,5.55
2019-02-16T12:44:02.757Z,5.59
2019-02-16T12:46:19.906Z,5.85
2019-02-16T12:48:36.390Z,5.73
2019-02-16T12:51:01.224Z,5.98
2019-02-16T12:53:33.457Z,5.98
2019-02-16T12:55:59.642Z,6.21
2019-02-16T12:58:18.798Z,6.12
2019-02-16T13:00:45.199Z,6.21
2019-02-16T13:03:10.077Z,6.03
2019-02-16T13:05:46.069Z,6.01
2019-02-16T13:07:57.926Z,6.15
2019-02-16T13:10:33.688Z,6.21
2019-02-16T13:12:59.820Z,6.17
2019-02-16T13:15:35.405Z,6.39
2019-02-16T13:18:07.758Z,6.50
2019-02-16T13:20:49.191Z,6.47
2019-02-16T13:23:06.362Z,6.54
2019-02-16T13:25:32.625Z,6.58
2019-02-16T13:28:01.796Z,6.64
2019-02-16T13:30:16.809Z,6.68
2019-02-16T13:32:44.352Z,6.68
2019-02-16T13:35:13.837Z,6.83
2019-02-16T13:37:42.739Z,6.85
2019-02-16T13:40:17.516Z,7.02
2019-02-16T13:42:50.349Z,7.12
2019-02-16T13:45:03.805Z,7.06
2019-02-16T13:47:39.812Z,7.19
2019-02-16T13:50:06.045Z,7.13
2019-02-16T13:52:30.188Z,7.19
2019-02-16T13:54:43.968Z,7.20
2019-02-16T13:57:20.276Z,7.22
2019-02-16T13:59:40.922Z,7.17
2019-02-16T14:02:13.835Z,7.30
2019-02-16T14:04:38.557Z,7.29
2019-02-16T14:07:07.834Z,7.32
2019-02-16T14:09:43.960Z,7.38
2019-02-16T14:12:00.925Z,7.23
2019-02-16T14:14:18.980Z,7.29
2019-02-16T14:16:34.504Z,7.37
2019-02-16T14:18:42.144Z,7.41
2019-02-16T14:20:49.784Z,7.52
2019-02-16T14:22:57.707Z,7.38
2019-02-16T14:25:07.637Z,7.32
2019-02-16T14:27:15.357Z,7.37
2019-02-16T14:29:24.282Z,7.50
2019-02-16T14:31:31.949Z,7.37
2019-02-16T14:33:39.672Z,7.18
2019-02-16T14:35:47.468Z,7.35
2019-02-16T14:38:08.767Z,7.43
2019-02-16T14:40:16.526Z,7.38
2019-02-16T14:42:24.625Z,7.44
2019-02-16T14:44:32.314Z,7.49
2019-02-16T14:46:40.073Z,7.47
2019-02-16T14:48:49.862Z,7.36
2019-02-16T14:50:57.314Z,7.40
2019-02-16T14:53:05.281Z,7.46
2019-02-16T14:55:14.881Z,7.49
2019-02-16T14:57:22.604Z,7.46
2019-02-16T14:59:30.457Z,7.51
2019-02-16T15:01:38.374Z,7.35
2019-02-16T15:03:46.432Z,7.37
2019-02-16T15:05:54.289Z,7.25
2019-02-16T15:08:02.032Z,7.17
2019-02-16T15:10:10.899Z,7.21
2019-02-16T15:12:18.707Z,7.09
2019-02-16T15:14:26.809Z,7.16
2019-02-16T15:16:34.636Z,7.05
2019-02-16T15:18:42.448Z,6.94
2019-02-16T15:20:50.242Z,7.05
2019-02-16T15:22:58.212Z,6.91
2019-02-16T15:25:06.335Z,6.91
2019-02-16T15:27:14.163Z,6.81
2019-02-16T15:29:22.312Z,6.66
2019-02-16T15:31:30.197Z,6.53
2019-02-16T15:33:38.116Z,6.42
2019-02-16T15:35:46.349Z,6.38
2019-02-16T15:37:54.347Z,6.33
2019-02-16T15:40:02.475Z,6.10
2019-02-16T15:42:10.573Z,6.06
2019-02-16T15:44:18.484Z,5.92
2019-02-16T15:46:26.457Z,5.80
2019-02-16T15:48:34.347Z,5.69
2019-02-16T15:50:42.224Z,5.62
2019-02-16T15:52:50.054Z,5.52
2019-02-16T15:54:57.995Z,5.50
2019-02-16T15:57:05.782Z,5.40
2019-02-16T15:59:13.783Z,5.26
2019-02-16T16:01:21.516Z,5.26
2019-02-16T16:03:29.233Z,5.26
2019-02-16T16:05:36.974Z,5.23
2019-02-16T16:07:49.520Z,5.24
2019-02-16T16:10:21.858Z,5.17
2019-02-16T16:12:56.305Z,5.22
2019-02-16T16:15:12.774Z,5.16
2019-02-16T16:17:39.365Z,5.03
2019-02-16T16:19:57.276Z,4.98
2019-02-16T16:22:29.093Z,4.93
2019-02-16T16:24:45.695Z,4.75
2019-02-16T16:27:18.115Z,4.77
2019-02-16T16:29:36.823Z,4.61
2019-02-16T16:32:03.569Z,4.59
2019-02-16T16:34:24.837Z,4.58
2019-02-16T16:36:58.119Z,4.47
2019-02-16T16:39:25.953Z,4.39
2019-02-16T16:41:53.135Z,4.38
2019-02-16T16:44:10.457Z,4.46
2019-02-16T16:46:39.513Z,4.55
2019-02-16T16:49:19.961Z,4.52
2019-02-16T16:51:58.781Z,4.49
2019-02-16T16:54:28.442Z,4.45
2019-02-16T16:56:44.592Z,4.41
2019-02-16T16:59:09.874Z,4.25
2019-02-16T17:01:35.509Z,4.25
2019-02-16T17:04:04.758Z,4.27
2019-02-16T17:06:38.028Z,4.12
2019-02-16T17:09:00.793Z,4.13
2019-02-16T17:11:26.445Z,4.04
2019-02-16T17:13:40.439Z,3.93
2019-02-16T17:15:54.212Z,3.86
2019-02-16T17:18:19.554Z,3.64
2019-02-16T17:20:34.623Z,3.66
2019-02-16T17:22:52.440Z,3.53
2019-02-16T17:25:17.900Z,3.50
2019-02-16T17:27:50.692Z,3.46
2019-02-16T17:30:22.934Z,3.15
2019-02-16T17:32:58.662Z,3.14
2019-02-16T17:35:16.452Z,3.25
2019-02-16T17:37:51.616Z,3.09
2019-02-16T17:40:18.316Z,3.12
2019-02-16T17:42:51.518Z,3.05
2019-02-16T17:45:19.172Z,3.08
2019-02-16T17:47:48.749Z,3.01
2019-02-16T17:50:24.568Z,2.84
2019-02-16T17:52:49.196Z,2.83
2019-02-16T17:55:15.573Z,2.78
2019-02-16T17:57:33.924Z,2.74
2019-02-16T18:00:03.520Z,2.51
2019-02-16T18:02:21.791Z,2.51
2019-02-16T18:04:47.826Z,2.60
2019-02-16T18:07:13.605Z,2.58
2019-02-16T18:09:46.851Z,2.54
2019-02-16T18:12:16.432Z,2.42
2019-02-16T18:14:44.558Z,2.34
2019-02-16T18:17:26.373Z,2.36
2019-02-16T18:19:55.147Z,2.25
2019-02-16T18:22:15.901Z,2.27
2019-02-16T18:24:41.094Z,2.33
2019-02-16T18:27:02.472Z,2.30
2019-02-16T18:29:38.400Z,2.24
2019-02-16T18:32:05.152Z,2.19
2019-02-16T18:34:30.627Z,2.08
2019-02-16T18:36:58.932Z,2.05
2019-02-16T18:39:19.075Z,2.08
2019-02-16T18:41:52.099Z,2.01
2019-02-16T18:44:31.009Z,2.01
2019-02-16T18:46:48.544Z,2.02
2019-02-16T18:49:15.477Z,1.99
2019-02-16T18:51:45.415Z,1.95
2019-02-16T18:54:02.402Z,1.80
2019-02-16T18:56:29.457Z,1.78
2019-02-16T18:58:54.965Z,1.84
2019-02-16T19:01:24.057Z,1.81
2019-02-16T19:03:49.262Z,1.77
2019-02-16T19:06:04.421Z,1.71
2019-02-16T19:08:30.262Z,1.64
2019-02-16T19:10:47.479Z,1.61
2019-02-16T19:13:20.374Z,1.59
2019-02-16T19:16:05.260Z,1.49
2019-02-16T19:18:24.308Z,1.45
2019-02-16T19:20:49.266Z,1.48
2019-02-16T19:23:24.981Z,1.43
2019-02-16T19:25:44.650Z,1.30
2019-02-16T19:28:12.196Z,1.38
2019-02-16T19:30:37.795Z,1.32
2019-02-16T19:33:04.727Z,1.20
2019-02-16T19:35:30.495Z,1.17
2019-02-16T19:37:52.169Z,1.21
2019-02-16T19:40:18.868Z,1.17
2019-02-16T19:42:51.812Z,1.03
2019-02-16T19:45:19.422Z,0.97
2019-02-16T19:47:45.806Z,0.88
2019-02-16T19:50:13.049Z,0.86
2019-02-16T19:52:43.170Z,0.84
2019-02-16T19:55:15.811Z,0.87
2019-02-16T19:57:35.070Z,0.85
2019-02-16T20:00:02.236Z,0.96
2019-02-16T20:02:35.014Z,0.97
2019-02-16T20:05:16.800Z,0.77
2019-02-16T20:07:53.683Z,0.85
2019-02-16T20:10:23.125Z,0.88
2019-02-16T20:13:05.065Z,0.92
2019-02-16T20:15:30.400Z,0.75
2019-02-16T20:17:56.188Z,0.72
2019-02-16T20:20:25.740Z,0.66
2019-02-16T20:22:51.561Z,0.73
2019-02-16T20:25:18.057Z,0.84
2019-02-16T20:27:44.555Z,0.82
2019-02-16T20:30:14.120Z,0.80
2019-02-16T20:32:40.595Z,0.80
2019-02-16T20:35:03.241Z,0.65
2019-02-16T20:37:33.052Z,0.62
2019-02-16T20:40:02.679Z,0.65
2019-02-16T20:42:28.036Z,0.69
2019-02-16T20:44:55.073Z,0.59
2019-02-16T20:47:18.088Z,0.53
2019-02-16T20:49:53.908Z,0.51
2019-02-16T20:52:19.609Z,0.44
2019-02-16T20:54:47.460Z,0.44
2019-02-16T20:57:04.695Z,0.51
2019-02-16T20:59:46.797Z,0.49
2019-02-16T21:02:16.510Z,0.28
2019-02-16T21:04:42.942Z,0.34
2019-02-16T21:07:08.755Z,0.38
2019-02-16T21:09:34.115Z,0.37
2019-02-16T21:12:03.572Z,0.46
2019-02-16T21:14:25.187Z,0.46
2019-02-16T21:16:46.635Z,0.27
2019-02-16T21:19:12.020Z,0.26
2019-02-16T21:21:41.268Z,0.24
2019-02-16T21:24:16.921Z,0.19
2019-02-16T21:26:36.532Z,0.12
2019-02-16T21:29:03.562Z,0.19
2019-02-16T21:31:29.124Z,0.12
2019-02-16T21:34:04.856Z,0.14
2019-02-16T21:36:24.103Z,0.09
2019-02-16T21:38:51.287Z,0.06
2019-02-16T21:41:14.437Z,0.10
2019-02-16T21:43:31.909Z,0.12
2019-02-16T21:46:04.207Z,0.07
2019-02-16T21:48:20.386Z,0.00
2019-02-16T21:50:47.073Z,0.09
2019-02-16T21:53:21.030Z,-0.01
2019-02-16T21:55:37.005Z,-0.03
2019-02-16T21:58:07.971Z,-0.13
2019-02-16T22:00:39.999Z,-0.01
2019-02-16T22:03:18.930Z,-0.10
2019-02-16T22:05:52.642Z,-0.04
2019-02-16T22:08:19.359Z,-0.12
2019-02-16T22:10:44.476Z,0.01
2019-02-16T22:13:09.601Z,-0.02
2019-02-16T22:15:17.418Z,-0.03
2019-02-16T22:17:25.275Z,-0.05
2019-02-16T22:19:32.621Z,-0.03
2019-02-16T22:21:40.266Z,-0.14
2019-02-16T22:23:47.793Z,-0.14
2019-02-16T22:25:55.870Z,-0.17
2019-02-16T22:28:03.623Z,-0.18
2019-02-16T22:30:11.947Z,-0.03
2019-02-16T22:32:19.401Z,-0.08
2019-02-16T22:34:27.256Z,-0.01
2019-02-16T22:36:35.210Z,0.02
2019-02-16T22:38:43.981Z,-0.05
2019-02-16T22:40:51.833Z,0.12
2019-02-16T22:42:59.878Z,0.19
2019-02-16T22:45:08.426Z,0.19
2019-02-16T22:47:16.138Z,0.27
2019-02-16T22:49:24.719Z,0.42
2019-02-16T22:51:32.616Z,0.36
2019-02-16T22:53:40.623Z,0.63
2019-02-16T22:55:48.394Z,0.95
2019-02-16T22:57:56.086Z,0.99
2019-02-16T23:00:04.068Z,2.43
2019-02-16T23:02:13.184Z,2.40
2019-02-16T23:04:21.055Z,2.74
2019-02-16T23:06:28.852Z,3.04
2019-02-16T23:08:36.729Z,3.20
2019-02-16T23:10:44.490Z,3.21
2019-02-16T23:12:52.294Z,3.14
2019-02-16T23:15:00.024Z,3.54
2019-02-16T23:17:07.877Z,3.53
2019-02-16T23:19:15.700Z,3.77
2019-02-16T23:21:23.480Z,3.94
2019-02-16T23:23:31.289Z,3.94
2019-02-16T23:25:39.247Z,4.31
2019-02-16T23:27:46.704Z,4.30
2019-02-16T23:29:54.598Z,4.27
2019-02-16T23:32:02.322Z,4.48
2019-02-16T23:34:10.001Z,4.43
2019-02-16T23:36:17.849Z,4.54
2019-02-16T23:38:25.952Z,4.56
2019-02-16T23:40:33.746Z,4.65
2019-02-16T23:42:41.949Z,4.71
2019-02-16T23:44:49.728Z,4.68
2019-02-16T23:46:57.514Z,4.80
2019-02-16T23:49:05.336Z,4.64
2019-02-16T23:51:13.123Z,4.81
2019-02-16T23:53:21.076Z,4.87
2019-02-16T23:55:28.915Z,4.99
2019-02-16T23:57:36.680Z,4.95
